Pentress, WV (26544)

8:19 PM EDT on August 31, 2015 (GMT -0400)
Brooks green roof | | Change Station
CLOSE
Current Station
Personal Weather Station
Location: Morgantown, WV
Elevation: 873 ft
Nearby Weather Stations

Elev 873 ft 39.64 °N, 79.96 °W | Updated 3 minutes ago

Mostly Cloudy
Mostly Cloudy
80.1 °F
Feels Like 83 °F
N
0.0
Wind Variable Wind from ENE
Gusts 0.7 mph

Today
High -- | Low -- °F
--% Chance of Precip.
Yesterday
High -- | Low -- °F
Precip. -- in
6:47 AM 7:53 PM
Waning Gibbous, 93% visible
Pressure 30.06 in
Visibility 10.0 miles
Clouds Few 8000 ft
Few 9500 ft
Heat Index 83 °F
Dew Point 68 °F
Humidity 67%
Rainfall in
Snow Depth Not available.
UV 0 out of 12
Pollen 10.50 out of 12
Air Quality Not available.
Flu Activity Not available.
METAR KMGW 312353Z 18003KT 10SM FEW080 FEW095 27/17 A3009 RMK AO2 SLP179 T02720172 10328 20267 53004
Pressure 30.06 in
Visibility 10.0 miles
Clouds Few 8000 ft
Few 9500 ft
Heat Index 83 °F
Dew Point 68 °F
Humidity 67%
Rainfall in
Snow Depth Not available.
UV 0 out of 12
Pollen 10.50 out of 12
Air Quality Not available.
Flu Activity Not available.
METAR KMGW 312353Z 18003KT 10SM FEW080 FEW095 27/17 A3009 RMK AO2 SLP179 T02720172 10328 20267 53004

10-Day Weather Forecast

×

Almanac

Astronomy

Aug. 31, 2015 Rise Set
Actual Time
Civil Twilight
Nautical Twilight
Astronomical Twilight
Moon
Length of Visible Light
Length of Day
Tomorrow will be .
, % of the Moon is Illuminated

Today's Extremes

State Highs State Lows

Community

WunderPhotos

Upload Photos

1,851,403 photos uploaded!

WunderBlogs® & News

Nearby

Air Quality

  Air Quality AQ Index Pollutant
Not available.

Snow Depth

Station Depth Elevation

Earthquake Activity

City Distance Mag. Time & Date
Minimum magnitude displayed is 2.5.

Coastal Water Temperatures

Place Temperature

Stations

Nearby Weather Stations

Station Location Temp. Windchill Dew Point Humidity Wind Precip. Elev Updated Type